Flight Track Log - Related Links

Times and Time Zones

All times are in EDT time to prevent confusion due to time zone crossing. See the JZA795 flight status page for this flight to view local times or setup timezone preferences in your user account.

Time Position Orientation Groundspeed Altitude Reporting Facility
EDT Latitude Longitude Course Direction KTS MPH feet Rate Location/Type
Wed 05:13:52 AM 46.1500 -60.0167 234° Southwest 10 12 200  Level Moncton Center
Wed 05:14:52 AM 46.1167 -60.0833 226° Southwest 130 150 2,100 2,200 Climbing Moncton Center
Wed 05:15:52 AM 46.0833 -60.1333 250° West 180 207 4,600 2,350 Climbing Moncton Center
Wed 05:16:52 AM 46.0667 -60.2000 270° West 240 276 6,800 2,550 Climbing Moncton Center
Wed 05:17:52 AM 46.0667 -60.3167 270° West 260 299 9,700 2,400 Climbing Moncton Center
Wed 05:18:52 AM 46.0667 -60.4333 280° West 270 311 11,600 1,800 Climbing Moncton Center
Wed 05:19:52 AM 46.0833 -60.5667 270° West 320 368 13,300 1,600 Climbing Moncton Center
Wed 05:20:52 AM 46.0833 -60.7000 270° West 350 403 14,800 1,500 Climbing Moncton Center
Wed 05:21:52 AM 46.0833 -60.8500 278° West 380 437 16,300 1,650 Climbing Moncton Center
Wed 05:22:52 AM 46.1000 -61.0167 262° West 390 449 18,100 1,700 Climbing Moncton Center
Wed 05:23:52 AM 46.0833 -61.1833 270° West 410 472 19,700 1,500 Climbing Moncton Center
Wed 05:24:52 AM 46.0833 -61.3333 270° West 420 483 21,100 1,400 Climbing Moncton Center
Wed 05:25:52 AM 46.0833 -61.5333 278° West 420 483 22,500 1,300 Climbing Moncton Center
Wed 05:26:52 AM 46.1000 -61.7000 270° West 430 495 23,700 1,200 Climbing Moncton Center
Wed 05:27:52 AM 46.1000 -61.8667 270° West 430 495 24,900 1,150 Climbing Moncton Center
Wed 05:28:52 AM 46.1000 -62.0500 270° West 440 506 26,000 1,000 Climbing Moncton Center
Wed 05:29:52 AM 46.1000 -62.2167 278° West 440 506 26,900 1,200 Climbing Moncton Center
Wed 05:30:52 AM 46.1167 -62.4000 270° West 450 518 28,400 1,450 Climbing Moncton Center
Wed 05:31:52 AM 46.1167 -62.5833 270° West 440 506 29,800 1,350 Climbing Moncton Center
Wed 05:32:52 AM 46.1167 -62.7500 270° West 440 506 31,100 1,200 Climbing Moncton Center
Wed 05:33:52 AM 46.1167 -62.9167 270° West 430 495 32,200 1,100 Climbing Moncton Center
Wed 05:34:52 AM 46.1167 -63.1000 262° West 430 495 33,300 1,100 Climbing Moncton Center
Wed 05:35:52 AM 46.1000 -63.2667 270° West 420 483 34,400 1,000 Climbing Moncton Center
Wed 05:36:52 AM 46.1000 -63.4333 270° West 420 483 35,300 950 Climbing Moncton Center
Wed 05:37:52 AM 46.1000 -63.6000 278° West 420 483 36,300 900 Climbing Moncton Center
Wed 05:38:52 AM 46.1167 -63.7667 270° West 410 472 37,100 700 Climbing Moncton Center
Wed 05:39:52 AM 46.1167 -63.9333 270° West 410 472 37,700 450 Climbing Moncton Center
Wed 05:40:52 AM 46.1167 -64.1000 270° West 410 472 38,000 150 Climbing Moncton Center
Wed 05:41:52 AM 46.1167 -64.2833 270° West 420 483 38,000  Level Moncton Center
Wed 05:42:52 AM 46.1167 -64.4500 270° West 420 483 38,000  Level Moncton Center
Wed 05:43:52 AM 46.1167 -64.6167 270° West 420 483 38,000  Level Moncton Center
Wed 05:44:52 AM 46.1167 -64.7833 270° West 420 483 38,000  Level Moncton Center
Wed 05:45:52 AM 46.1167 -64.9500 262° West 420 483 38,000  Level Moncton Center
Wed 05:46:52 AM 46.1000 -65.1167 262° West 420 483 38,000  Level Moncton Center
Wed 05:47:52 AM 46.0833 -65.2833 270° West 420 483 38,000  Level Moncton Center
Wed 05:48:52 AM 46.0833 -65.4667 270° West 420 483 38,000  Level Moncton Center
Wed 05:49:52 AM 46.0833 -65.6333 270° West 420 483 38,000  Level Moncton Center
Wed 05:50:52 AM 46.0833 -65.8000 270° West 420 483 38,000  Level Moncton Center
Wed 05:51:52 AM 46.0833 -65.9667 270° West 420 483 38,000  Level Moncton Center
Wed 05:52:52 AM 46.0833 -66.1333 270° West 420 483 38,000  Level Moncton Center
Wed 05:53:52 AM 46.0833 -66.3000 262° West 420 483 38,000  Level Moncton Center
Wed 05:54:52 AM 46.0667 -66.4667 270° West 420 483 38,000  Level Moncton Center
Wed 05:55:52 AM 46.0667 -66.6333 270° West 420 483 38,000  Level Moncton Center
Wed 05:56:52 AM 46.0667 -66.8167 270° West 420 483 38,000  Level Moncton Center
Wed 05:57:52 AM 46.0667 -66.9500 263° West 420 483 38,000  Level Moncton Center
Wed 05:58:52 AM 46.0500 -67.1500 260° West 420 483 38,000  Level Moncton Center
Wed 05:59:52 AM 46.0333 -67.2833 270° West 420 483 38,000  Level Moncton Center
Wed 06:00:52 AM 46.0333 -67.4833 270° West 420 483 38,000  Level Moncton Center
Wed 06:01:52 AM 46.0333 -67.6333 278° West 410 472 38,000  Level Moncton Center
Wed 06:02:31 AM 46.0436 -67.7458 265° West 427 491 38,000  Level Boston Center
Wed 06:03:31 AM 46.0333 -67.9083 264° West 427 491 38,000  Level Boston Center
Wed 06:04:31 AM 46.0208 -68.0708 262° West 422 486 38,000  Level Boston Center
Wed 06:05:31 AM 46.0058 -68.2333 261° West 417 480 38,000  Level Boston Center
Wed 06:06:31 AM 45.9886 -68.3900 262° West 410 472 38,000  Level Boston Center
Wed 06:07:31 AM 45.9733 -68.5525 263° West 410 472 38,000  Level Boston Center
Wed 06:08:31 AM 45.9594 -68.7086 262° West 410 472 38,000  Level Boston Center
Wed 06:09:31 AM 45.9436 -68.8678 263° West 410 472 38,000  Level Boston Center
Wed 06:10:31 AM 45.9297 -69.0239 262° West 410 472 38,000  Level Boston Center
Wed 06:11:31 AM 45.9153 -69.1800 261° West 410 472 38,000 -50 Level Boston Center
Wed 06:12:31 AM 45.8989 -69.3361 262° West 410 472 37,900  Descending Boston Center
Wed 06:13:31 AM 45.8842 -69.4919 263° West 405 466 38,000 50 Climbing Boston Center
Wed 06:14:31 AM 45.8714 -69.6475 261° West 405 466 38,000  Level Boston Center
Wed 06:15:31 AM 45.8542 -69.8033 262° West 405 466 38,000  Level Boston Center
Wed 06:16:31 AM 45.8386 -69.9589 261° West 405 466 38,000  Level Boston Center
Wed 06:17:31 AM 45.8211 -70.1144 263° West 405 466 38,000  Level Boston Center
Wed 06:18:31 AM 45.8075 -70.2700 261° West 405 466 38,000  Level Boston Center
Wed 06:19:31 AM 45.7894 -70.4256 264° West 405 466 38,000  Level Boston Center
Wed 06:20:31 AM 45.7775 -70.5864 255° West 405 466 38,000  Level Boston Center
Wed 06:21:37 AM 45.7500 -70.7333 262° West 400 460 38,000  Level Montreal Center
Wed 06:22:37 AM 45.7333 -70.9000 270° West 410 472 38,000  Level Montreal Center
Wed 06:23:37 AM 45.7333 -71.0667 261° West 410 472 38,000  Level Montreal Center
Wed 06:24:37 AM 45.7167 -71.2167 270° West 410 472 38,000  Level Montreal Center
Wed 06:25:37 AM 45.7167 -71.3833 262° West 410 472 38,000  Level Montreal Center
Wed 06:26:37 AM 45.7000 -71.5500 270° West 410 472 38,000  Level Montreal Center
Wed 06:27:37 AM 45.7000 -71.7167 252° West 410 472 38,000  Level Montreal Center
Wed 06:28:37 AM 45.6667 -71.8667 262° West 410 472 38,000  Level Montreal Center
Wed 06:29:37 AM 45.6500 -72.0333 270° West 410 472 38,000  Level Montreal Center
Wed 06:30:37 AM 45.6500 -72.2000 261° West 410 472 38,000  Level Montreal Center
Wed 06:31:37 AM 45.6333 -72.3500 262° West 410 472 38,000  Level Montreal Center
Wed 06:32:37 AM 45.6167 -72.5167 270° West 410 472 38,000  Level Montreal Center
Wed 06:34:37 AM 45.6167 -72.8500 261° West 410 472 38,000  Level Montreal Center
Wed 06:35:37 AM 45.6000 -73.0000 270° West 410 472 38,000  Level Montreal Center
Wed 06:36:37 AM 45.6000 -73.1667 278° West 410 472 38,000  Level Montreal Center
Wed 06:37:37 AM 45.6167 -73.3333 270° West 410 472 38,000  Level Montreal Center
Wed 06:38:37 AM 45.6167 -73.5000 262° West 410 472 38,000  Level Montreal Center
Wed 06:39:37 AM 45.6000 -73.6667 270° West 410 472 38,000  Level Montreal Center
Wed 06:40:37 AM 45.6000 -73.8333 262° West 410 472 38,000  Level Montreal Center
Wed 06:41:37 AM 45.5833 -74.0000 270° West 420 483 38,000  Level Montreal Center
Wed 06:42:37 AM 45.5833 -74.1500 254° West 420 483 38,000  Level Montreal Center
Wed 06:43:37 AM 45.5500 -74.3167 262° West 420 483 38,000  Level Montreal Center
Wed 06:44:37 AM 45.5333 -74.4833 254° West 420 483 38,000  Level Montreal Center
Wed 06:45:37 AM 45.5000 -74.6500 254° West 420 483 38,000  Level Montreal Center
Wed 06:46:37 AM 45.4667 -74.8167 262° West 430 495 38,000  Level Montreal Center
Wed 06:47:37 AM 45.4500 -74.9833 254° West 430 495 38,000  Level Montreal Center
Wed 06:48:37 AM 45.4167 -75.1500 254° West 430 495 38,000  Level Montreal Center
Wed 06:49:37 AM 45.3833 -75.3167 262° West 430 495 38,000  Level Montreal Center
Wed 06:50:37 AM 45.3667 -75.4833 254° West 430 495 38,000  Level Montreal Center
Wed 06:51:37 AM 45.3333 -75.6500 256° West 430 495 38,000  Level Montreal Center
Wed 06:52:37 AM 45.3000 -75.8333 262° West 440 506 38,000  Level Montreal Center
Wed 06:53:37 AM 45.2833 -76.0000 254° West 430 495 38,000  Level Montreal Center
Wed 06:54:37 AM 45.2500 -76.1667 242° Southwest 430 495 38,000  Level Montreal Center
Wed 06:55:37 AM 45.2000 -76.3000 240° Southwest 430 495 38,000  Level Montreal Center
Wed 06:56:37 AM 45.1333 -76.4667 223° Southwest 440 506 38,000  Level Montreal Center
Wed 06:57:24 AM 45.0833 -76.5333 245° Southwest 440 506 38,000  Level Toronto Center
Wed 06:58:24 AM 45.0333 -76.6833 232° Southwest 440 506 38,000  Level Toronto Center
Wed 06:59:24 AM 44.9500 -76.8333 235° Southwest 440 506 38,000  Level Toronto Center
Wed 07:00:24 AM 44.8833 -76.9667 238° Southwest 440 506 38,000  Level Toronto Center
Wed 07:01:24 AM 44.8167 -77.1167 238° Southwest 440 506 38,000 -250 Level Toronto Center
Wed 07:02:24 AM 44.7500 -77.2667 242° Southwest 440 506 37,500 -600 Descending Toronto Center
Wed 07:03:24 AM 44.7000 -77.4000 235° Southwest 450 518 36,800 -800 Descending Toronto Center
Wed 07:04:24 AM 44.6167 -77.5667 238° Southwest 460 529 35,900 -950 Descending Toronto Center
Wed 07:05:24 AM 44.5500 -77.7167 235° Southwest 460 529 34,900 -1,000 Descending Toronto Center
Wed 07:06:24 AM 44.4667 -77.8833 235° Southwest 470 541 33,900 -1,000 Descending Toronto Center
Wed 07:07:24 AM 44.4000 -78.0167 235° Southwest 480 552 32,900 -1,000 Descending Toronto Center
Wed 07:08:24 AM 44.3167 -78.1833 238° Southwest 480 552 31,900 -1,500 Descending Toronto Center
Wed 07:09:24 AM 44.2500 -78.3333 235° Southwest 470 541 29,900 -2,250 Descending Toronto Center
Wed 07:10:24 AM 44.1833 -78.4667 238° Southwest 460 529 27,400 -2,750 Descending Toronto Center
Wed 07:11:24 AM 44.1167 -78.6167 235° Southwest 450 518 24,400 -2,850 Descending Toronto Center
Wed 07:12:24 AM 44.0500 -78.7500 235° Southwest 430 495 21,700 -2,800 Descending Toronto Center
Wed 07:13:24 AM 43.9833 -78.8833 239° Southwest 400 460 18,800 -2,800 Descending Toronto Center
Wed 07:14:24 AM 43.9333 -79.0000 239° Southwest 380 437 16,100 -2,800 Descending Toronto Center
Wed 07:15:24 AM 43.8833 -79.1167 232° Southwest 370 426 13,200 -2,800 Descending Toronto Center
Wed 07:16:24 AM 43.8167 -79.2333 235° Southwest 360 414 10,500 -1,600 Descending Toronto Center
Wed 07:17:24 AM 43.7667 -79.3333 224° Southwest 320 368 10,000 -700 Descending Toronto Center
Wed 07:18:24 AM 43.7167 -79.4000 216° Southwest 290 334 9,100 -950 Descending Toronto Center
Wed 07:19:24 AM 43.6500 -79.4667 216° Southwest 270 311 8,100 -1,150 Descending Toronto Center
Wed 07:20:24 AM 43.6000 -79.5167 216° Southwest 260 299 6,800 -1,400 Descending Toronto Center
Wed 07:21:24 AM 43.5333 -79.5833 235° Southwest 260 299 5,300 -1,400 Descending Toronto Center
Wed 07:22:24 AM 43.5000 -79.6500 257° West 250 288 4,000 -1,150 Descending Toronto Center
Wed 07:23:24 AM 43.4833 -79.7500 346° North 230 265 3,000 -500 Descending Toronto Center
Wed 07:24:24 AM 43.5333 -79.7667 47° Northeast 200 230 3,000 -50 Level Toronto Center
Wed 07:25:24 AM 43.5667 -79.7167 36° Northeast 200 230 2,900 -550 Descending Toronto Center
Wed 07:26:24 AM 43.6000 -79.6833 47° Northeast 160 184 1,900 -850 Descending Toronto Center
Wed 07:27:24 AM 43.6333 -79.6333 65° Northeast 150 173 1,200 -700 Descending Toronto Center
Wed 07:28:24 AM 43.6500 -79.5833 360° North 140 161 500 -350 Descending Toronto Center
Wed 07:29:24 AM 43.6667 -79.5833 360° North 50 58 500  Level Toronto Center

Login

Don't have an account? Register now (free) for customized features, flight alerts, and more!